KMHT/MHT METAR and TAF weather

Enter ICAO airport designator
Station Type Date Time Source
KMHT METAR 2021/09/24 02:11 UTC NOAA

KMHT 240211Z 11007KT 10SM BKN023 BKN250 22/19 A3006 RMK AO2 T02220189


Station Type Date Time Source
KMHT Decoded METAR 2021/09/24 02:11 UTC NOAA

MANCHESTER AIRPORT, NH, United States (KMHT) 42-56N 071-26W 81M
Sep 23, 2021 - 10:11 PM EDT / 2021.09.24 0211 UTC
Wind: from the ESE (110 degrees) at 8 MPH (7 KT):0
Visibility: 10 mile(s):0
Sky conditions: mostly cloudy
Temperature: 72.0 F (22.2 C)
Dew Point: 66.0 F (18.9 C)
Relative Humidity: 81%
Pressure (altimeter): 30.06 in. Hg (1017 hPa)
ob: KMHT 240211Z 11007KT 10SM BKN023 BKN250 22/19 A3006 RMK AO2 T02220189
cycle: 2

Station Type Date Time Source
KMHT TAF 2021/09/24 02:16 UTC NOAA

TAF
AMD KMHT 240214Z 2402/2424 11007KT P6SM BKN023 BKN250
FM240600 13008KT 3SM BR BKN020
FM241000 14009G15KT 3SM BR VCSH OVC005
FM241700 14008KT 5SM -TSRA BR OVC015CB
FM242200 12007KT P6SM OVC015

Example: see airport list